Time;durP1;ratioP1;P1;durP2;ratioP2;P2;SDS_P1;SDS_P2;PMS_P1;PMS_P2;Temp;Humidity;BMP_temperature;BMP_pressure;BME280_temperature;BME280_humidity;BME280_pressure;Samples;Min_cycle;Max_cycle;Signal;HPM_P1;HPM_P2
2023/03/20 00:02:02;;;;;;;3.28;3.03;;;16.20;79.90;;;;;;3911256;30;20413;-68
2023/03/20 00:04:43;;;;;;;6.63;3.38;;;16.20;79.70;;;;;;3926747;30;20059;-74
2023/03/20 00:07:25;;;;;;;3.67;3.33;;;16.20;79.70;;;;;;3915554;30;20393;-73
2023/03/20 00:10:08;;;;;;;;;;;16.20;79.80;;;;;;3927252;30;20106;-74
2023/03/20 00:12:50;;;;;;;3.78;3.15;;;16.20;80.00;;;;;;3926876;30;19958;-73
2023/03/20 00:15:35;;;;;;;3.10;2.90;;;16.20;80.10;;;;;;3925367;30;20059;-73
2023/03/20 00:18:19;;;;;;;5.75;2.78;;;16.20;80.00;;;;;;3926402;30;20063;-74
2023/03/20 00:21:00;;;;;;;3.45;2.75;;;16.20;79.80;;;;;;3916054;30;20054;-74
2023/03/20 00:23:41;;;;;;;3.80;3.00;;;16.20;80.00;;;;;;3915950;30;20055;-73
2023/03/20 00:26:27;;;;;;;4.78;3.10;;;16.20;79.90;;;;;;3926779;30;20097;-74
2023/03/20 00:29:10;;;;;;;5.10;3.70;;;16.10;79.50;;;;;;3926827;30;20063;-73
2023/03/20 00:31:51;;;;;;;6.50;3.35;;;16.10;79.60;;;;;;3915271;30;20109;-73
2023/03/20 00:34:32;;;;;;;4.75;3.17;;;16.10;79.80;;;;;;3923346;30;20060;-73
2023/03/20 00:37:13;;;;;;;3.10;2.80;;;16.10;79.80;;;;;;3912290;30;20063;-74
2023/03/20 00:39:54;;;;;;;4.13;2.83;;;16.10;79.90;;;;;;3906136;30;20055;-74
2023/03/20 00:42:36;;;;;;;4.45;2.70;;;16.10;80.00;;;;;;3918696;30;20059;-74
2023/03/20 00:45:20;;;;;;;4.75;2.80;;;16.10;80.10;;;;;;3926675;30;20051;-74
2023/03/20 00:48:02;;;;;;;3.58;3.28;;;16.10;80.00;;;;;;3915665;30;20519;-73
2023/03/20 00:50:44;;;;;;;;;;;16.10;80.00;;;;;;3927354;30;20055;-73
2023/03/20 00:53:24;;;;;;;3.30;3.00;;;16.10;80.00;;;;;;3901346;30;19933;-74
2023/03/20 00:56:26;;;;;;;2.95;2.75;;;16.10;80.40;;;;;;3912088;30;20076;-73
2023/03/20 00:59:17;;;;;;;4.60;3.25;;;16.00;80.00;;;;;;3911594;30;20063;-74
2023/03/20 01:01:58;;;;;;;5.32;2.75;;;16.10;80.00;;;;;;3911146;30;20060;-74
2023/03/20 01:04:41;;;;;;;3.28;2.80;;;16.00;80.20;;;;;;3911894;30;20614;-74
2023/03/20 01:07:22;;;;;;;4.00;3.17;;;16.00;80.20;;;;;;3913948;30;20064;-74
2023/03/20 01:10:03;;;;;;;3.35;2.72;;;16.00;80.20;;;;;;3907814;30;20713;-73
2023/03/20 01:12:46;;;;;;;3.28;2.97;;;16.00;80.10;;;;;;3914972;30;20055;-73
2023/03/20 01:15:31;;;;;;;4.28;3.17;;;16.00;80.00;;;;;;3915756;30;20547;-74
2023/03/20 01:18:14;;;;;;;5.15;2.80;;;16.00;79.90;;;;;;3915689;30;20063;-73
2023/03/20 01:20:55;;;;;;;3.25;2.75;;;16.00;79.80;;;;;;3926252;30;20075;-73
2023/03/20 01:23:36;;;;;;;4.32;2.80;;;16.00;79.90;;;;;;3901008;30;20059;-72
2023/03/20 01:26:24;;;;;;;3.90;2.58;;;16.00;80.00;;;;;;3914372;30;20060;-73
2023/03/20 01:29:05;;;;;;;5.20;2.92;;;16.00;79.90;;;;;;3914643;30;20060;-74
2023/03/20 01:31:48;;;;;;;4.45;2.28;;;16.00;79.90;;;;;;3914087;30;20052;-72
2023/03/20 01:34:30;;;;;;;5.47;2.85;;;16.00;79.70;;;;;;3893433;30;20059;-72
2023/03/20 01:37:14;;;;;;;4.87;2.63;;;16.00;79.80;;;;;;3900264;30;20067;-73
2023/03/20 01:39:56;;;;;;;5.25;3.15;;;16.00;79.90;;;;;;3906340;30;20355;-73
2023/03/20 01:42:38;;;;;;;5.35;2.97;;;15.90;80.00;;;;;;3917597;30;20059;-74
2023/03/20 01:45:22;;;;;;;4.63;2.72;;;15.90;79.90;;;;;;3928534;30;20059;-74
2023/03/20 01:48:14;;;;;;;3.70;2.67;;;15.90;79.60;;;;;;3917282;30;20078;-73
2023/03/20 01:50:56;;;;;;;7.57;2.55;;;15.90;79.40;;;;;;3927671;30;20197;-74
2023/03/20 01:53:38;;;;;;;4.53;2.80;;;15.90;79.80;;;;;;3917660;30;20051;-73
2023/03/20 01:56:20;;;;;;;4.30;2.60;;;15.90;79.70;;;;;;3914262;30;20051;-72
2023/03/20 01:59:08;;;;;;;4.65;3.05;;;15.90;79.80;;;;;;3917747;30;20070;-73
2023/03/20 02:01:49;;;;;;;5.30;3.65;;;15.90;80.00;;;;;;3917034;30;20051;-72
2023/03/20 02:04:36;;;;;;;6.35;3.25;;;15.90;80.00;;;;;;3917797;30;20055;-72
2023/03/20 02:07:23;;;;;;;8.43;3.60;;;15.90;80.10;;;;;;3904234;30;20071;-73
2023/03/20 02:10:18;;;;;;;7.60;3.45;;;15.90;80.20;;;;;;3902723;30;20417;-73
2023/03/20 02:13:09;;;;;;;5.20;3.08;;;15.90;80.90;;;;;;3896475;30;20056;-72
2023/03/20 02:16:04;;;;;;;7.90;4.10;;;15.90;80.20;;;;;;3902964;30;20051;-72
2023/03/20 02:19:21;;;;;;;7.60;3.70;;;15.90;80.20;;;;;;3919057;30;20071;-72
2023/03/20 02:22:40;;;;;;;4.20;3.80;;;15.90;80.10;;;;;;3917792;30;20056;-73
2023/03/20 02:25:53;;;;;;;5.25;4.10;;;15.80;80.00;;;;;;3900629;30;20517;-72
2023/03/20 02:29:09;;;;;;;8.23;3.85;;;15.80;80.00;;;;;;3900696;30;20064;-68
2023/03/20 02:32:24;;;;;;;8.07;4.15;;;15.80;80.00;;;;;;3909961;30;20616;-72
2023/03/20 02:35:27;;;;;;;8.00;4.35;;;15.80;80.20;;;;;;3899443;30;20051;-73
2023/03/20 02:38:54;;;;;;;6.60;4.15;;;15.80;80.20;;;;;;3913134;30;20133;-72
2023/03/20 02:41:42;;;;;;;7.68;4.32;;;15.80;80.00;;;;;;3911522;30;20068;-72
2023/03/20 02:44:32;;;;;;;7.53;4.57;;;15.80;80.60;;;;;;3889750;30;20055;-72
2023/03/20 02:47:23;;;;;;;8.07;4.68;;;15.80;80.40;;;;;;3902101;30;20406;-71
2023/03/20 02:50:15;;;;;;;7.45;4.57;;;15.80;80.40;;;;;;3908631;30;20129;-73
2023/03/20 02:53:07;;;;;;;9.90;4.82;;;15.80;80.50;;;;;;3916577;30;20059;-71
2023/03/20 02:55:58;;;;;;;8.05;4.28;;;15.80;80.60;;;;;;3897100;30;20107;-72
2023/03/20 02:58:44;;;;;;;8.03;4.83;;;15.80;80.60;;;;;;3902124;30;20050;-72
2023/03/20 03:01:32;;;;;;;9.05;4.93;;;15.80;80.70;;;;;;3913169;30;20384;-72
2023/03/20 03:04:17;;;;;;;9.68;4.43;;;15.80;80.70;;;;;;3902161;30;20129;-71
2023/03/20 03:06:58;;;;;;;8.75;5.07;;;15.70;80.60;;;;;;3912416;30;20140;-71
2023/03/20 03:09:43;;;;;;;7.47;4.90;;;15.80;80.60;;;;;;3902103;30;20421;-71
2023/03/20 03:12:29;;;;;;;11.52;5.32;;;15.70;80.40;;;;;;3913183;30;20059;-72
2023/03/20 03:15:19;;;;;;;8.30;5.03;;;15.80;80.50;;;;;;3912089;30;20191;-71
2023/03/20 03:18:05;;;;;;;8.18;4.97;;;15.80;80.50;;;;;;3902095;30;20063;-71
2023/03/20 03:20:48;;;;;;;7.40;4.30;;;15.70;81.20;;;;;;3910006;30;20198;-71
2023/03/20 03:23:31;;;;;;;9.27;5.15;;;15.70;80.30;;;;;;3916039;30;20082;-71
2023/03/20 03:26:18;;;;;;;6.32;4.75;;;15.70;80.20;;;;;;3926970;30;20074;-72
2023/03/20 03:29:04;;;;;;;10.65;5.40;;;15.70;80.20;;;;;;3912712;30;20059;-72
2023/03/20 03:31:48;;;;;;;8.88;4.93;;;15.70;80.30;;;;;;3891834;30;20055;-72
2023/03/20 03:34:30;;;;;;;8.98;4.88;;;15.70;80.30;;;;;;3920177;30;20063;-73
2023/03/20 03:37:21;;;;;;;5.95;4.65;;;15.70;80.50;;;;;;3905967;30;20592;-73
2023/03/20 03:40:11;;;;;;;10.25;5.60;;;15.70;80.40;;;;;;3915372;30;20125;-71
2023/03/20 03:42:56;;;;;;;10.20;5.93;;;15.70;80.50;;;;;;3901754;30;20054;-73
2023/03/20 03:45:44;;;;;;;10.77;5.45;;;15.70;80.50;;;;;;3910938;30;20393;-73
2023/03/20 03:48:31;;;;;;;12.40;5.80;;;15.70;80.40;;;;;;3925978;30;20055;-72
2023/03/20 03:51:15;;;;;;;8.55;5.68;;;15.70;80.60;;;;;;3915970;30;20063;-73
2023/03/20 03:54:12;;;;;;;12.10;6.13;;;15.60;80.60;;;;;;3905861;30;20656;-71
2023/03/20 03:56:55;;;;;;;12.95;6.03;;;15.60;80.40;;;;;;3901822;30;20060;-72
2023/03/20 03:59:40;;;;;;;10.82;6.03;;;15.70;80.20;;;;;;3921811;30;20097;-72
2023/03/20 04:02:23;;;;;;;9.10;6.05;;;15.60;79.10;;;;;;3916124;30;20051;-72
2023/03/20 04:05:07;;;;;;;10.73;6.07;;;15.60;80.00;;;;;;3915662;30;20147;-72
2023/03/20 04:07:53;;;;;;;10.60;5.93;;;15.60;80.10;;;;;;3915412;30;20949;-72
2023/03/20 04:10:34;;;;;;;9.52;6.03;;;15.60;80.60;;;;;;3926980;30;20062;-72
2023/03/20 04:13:15;;;;;;;9.30;5.77;;;15.60;80.30;;;;;;3926628;30;20144;-72
2023/03/20 04:15:56;;;;;;;10.23;6.07;;;15.60;80.30;;;;;;3915472;30;20063;-72
2023/03/20 04:18:41;;;;;;;10.45;6.57;;;15.60;80.30;;;;;;3915787;30;20132;-72
2023/03/20 04:21:25;;;;;;;8.70;5.50;;;15.60;80.30;;;;;;3915727;30;20059;-72
2023/03/20 04:24:06;;;;;;;10.90;6.40;;;15.60;80.60;;;;;;3926604;30;20051;-72
2023/03/20 04:26:47;;;;;;;11.73;6.32;;;15.60;80.60;;;;;;3926418;30;20084;-72
2023/03/20 04:29:28;;;;;;;15.10;7.10;;;15.60;80.40;;;;;;3915778;30;20067;-72
2023/03/20 04:32:34;;;;;;;10.85;6.38;;;15.60;80.40;;;;;;3914931;30;20570;-72
2023/03/20 04:35:30;;;;;;;11.43;6.53;;;15.60;80.30;;;;;;3926278;30;20117;-72
2023/03/20 04:38:16;;;;;;;9.40;5.75;;;15.60;80.20;;;;;;3920050;30;20064;-72
2023/03/20 04:40:57;;;;;;;10.40;5.57;;;15.60;80.10;;;;;;3891062;30;20056;-73
2023/03/20 04:43:39;;;;;;;8.32;5.93;;;15.60;80.00;;;;;;3901275;30;20129;-72
2023/03/20 04:46:20;;;;;;;10.60;5.57;;;15.60;80.10;;;;;;3914662;30;20058;-71
2023/03/20 04:49:01;;;;;;;9.98;5.57;;;15.60;80.20;;;;;;3915479;30;20054;-73
2023/03/20 04:51:44;;;;;;;10.88;5.82;;;15.50;80.10;;;;;;3905507;30;20047;-71
2023/03/20 04:54:27;;;;;;;7.72;5.65;;;15.50;80.10;;;;;;3907280;30;20746;-72
2023/03/20 04:57:08;;;;;;;7.43;5.85;;;15.50;80.00;;;;;;3899564;30;20075;-72
2023/03/20 04:59:50;;;;;;;10.48;5.60;;;15.50;79.90;;;;;;3913254;30;20056;-72
2023/03/20 05:02:31;;;;;;;11.93;5.90;;;15.50;79.90;;;;;;3895020;30;20073;-73
2023/03/20 05:05:12;;;;;;;6.78;5.43;;;15.50;81.00;;;;;;3917045;30;20087;-72
2023/03/20 05:07:54;;;;;;;10.10;6.40;;;15.60;79.80;;;;;;3917889;30;20113;-72
2023/03/20 05:10:46;;;;;;;11.38;5.32;;;15.60;79.60;;;;;;3917879;30;20309;-72
2023/03/20 05:13:47;;;;;;;10.52;5.63;;;15.60;79.50;;;;;;3928399;30;20055;-71
2023/03/20 05:16:36;;;;;;;7.72;5.80;;;15.60;79.60;;;;;;3917265;30;20101;-71
2023/03/20 05:19:32;;;;;;;11.73;5.68;;;15.70;80.00;;;;;;3903524;30;20632;-72
2023/03/20 05:22:32;;;;;;;8.60;5.35;;;15.70;79.80;;;;;;3903568;30;20516;-71
2023/03/20 05:25:34;;;;;;;6.47;5.30;;;15.80;79.50;;;;;;3914299;30;20669;-73
2023/03/20 05:28:44;;;;;;;8.25;5.68;;;15.80;79.20;;;;;;3880144;30;20075;-72
2023/03/20 05:31:50;;;;;;;10.38;4.93;;;15.80;79.20;;;;;;3904620;30;20055;-72
2023/03/20 05:34:44;;;;;;;6.82;4.63;;;15.80;79.00;;;;;;3903029;30;20059;-73
2023/03/20 05:37:40;;;;;;;7.20;5.25;;;15.80;78.90;;;;;;3892117;30;20055;-73
2023/03/20 05:40:43;;;;;;;8.63;6.10;;;15.80;78.90;;;;;;3905248;30;20529;-73
2023/03/20 05:43:31;;;;;;;10.13;5.90;;;15.70;78.80;;;;;;3917503;30;20189;-73
2023/03/20 05:46:29;;;;;;;8.10;5.65;;;15.70;79.00;;;;;;3917733;30;20057;-73
2023/03/20 05:49:35;;;;;;;8.13;5.07;;;15.70;79.30;;;;;;3926271;30;20102;-73
2023/03/20 05:52:19;;;;;;;8.27;5.53;;;15.70;79.50;;;;;;3916228;30;20074;-73
2023/03/20 05:55:29;;;;;;;7.85;5.22;;;15.80;79.30;;;;;;3917279;30;20067;-72
2023/03/20 05:58:37;;;;;;;6.57;5.15;;;15.80;79.00;;;;;;3928565;30;20108;-73
2023/03/20 06:01:38;;;;;;;8.60;5.57;;;15.90;78.70;;;;;;3928445;30;20055;-73
2023/03/20 06:04:38;;;;;;;8.60;5.13;;;16.00;78.60;;;;;;3916790;30;20194;-73
2023/03/20 06:07:45;;;;;;;8.35;5.38;;;16.10;78.30;;;;;;3927571;30;20059;-74
2023/03/20 06:10:29;;;;;;;6.60;4.65;;;16.20;77.70;;;;;;3906632;30;20130;-75
2023/03/20 06:13:10;;;;;;;10.50;5.75;;;16.30;77.30;;;;;;3917309;30;20515;-75
2023/03/20 06:15:53;;;;;;;12.13;5.65;;;16.30;76.80;;;;;;3917113;30;20121;-73
2023/03/20 06:18:37;;;;;;;9.40;5.82;;;16.40;76.60;;;;;;3928276;30;20063;-73
2023/03/20 06:21:19;;;;;;;8.30;5.82;;;16.40;77.30;;;;;;3916678;30;20059;-73
2023/03/20 06:24:00;;;;;;;8.73;6.35;;;16.40;76.20;;;;;;3909057;30;20097;-73
2023/03/20 06:26:42;;;;;;;8.73;5.90;;;16.40;76.30;;;;;;3917381;30;20217;-73
2023/03/20 06:29:25;;;;;;;11.77;5.93;;;16.40;76.30;;;;;;3913939;30;20472;-73
2023/03/20 06:32:11;;;;;;;10.45;5.45;;;16.40;76.10;;;;;;3917118;30;20067;-72
2023/03/20 06:34:52;;;;;;;6.93;5.65;;;16.40;76.00;;;;;;3910449;30;20063;-73
2023/03/20 06:37:33;;;;;;;9.00;5.70;;;16.40;75.90;;;;;;3916997;30;20513;-74
2023/03/20 06:40:21;;;;;;;11.88;5.97;;;16.40;75.90;;;;;;3915471;30;20063;-72
2023/03/20 06:43:02;;;;;;;10.68;6.18;;;16.40;76.90;;;;;;3917062;30;20055;-73
2023/03/20 06:45:53;;;;;;;11.80;6.90;;;16.40;76.00;;;;;;3907433;30;20567;-74
2023/03/20 06:48:38;;;;;;;8.88;6.32;;;16.40;76.10;;;;;;3910589;30;20153;-73
2023/03/20 06:51:20;;;;;;;10.35;6.00;;;16.40;75.90;;;;;;3913794;30;20055;-72
2023/03/20 06:54:05;;;;;;;8.60;5.88;;;16.40;75.90;;;;;;3915589;30;20438;-73
2023/03/20 06:56:46;;;;;;;9.68;6.35;;;16.50;76.10;;;;;;3927359;30;20051;-72
2023/03/20 06:59:27;;;;;;;9.20;6.10;;;16.50;76.10;;;;;;3916839;30;20055;-68
2023/03/20 07:02:10;;;;;;;10.32;6.55;;;16.50;76.00;;;;;;3926375;30;20082;-67
2023/03/20 07:04:53;;;;;;;;;;;16.50;75.60;;;;;;3907529;30;20082;-68
2023/03/20 07:07:39;;;;;;;10.10;6.60;;;16.50;75.10;;;;;;3916612;30;20383;-68
2023/03/20 07:10:20;;;;;;;12.10;7.13;;;16.50;74.60;;;;;;3928034;30;20182;-68
2023/03/20 07:13:04;;;;;;;9.00;6.82;;;16.50;74.10;;;;;;3915990;30;20071;-67
2023/03/20 07:15:47;;;;;;;8.45;5.85;;;16.50;73.40;;;;;;3916538;30;20063;-68
2023/03/20 07:18:46;;;;;;;9.15;6.60;;;16.50;73.10;;;;;;3916032;30;20055;-67
2023/03/20 07:21:30;;;;;;;14.10;6.65;;;16.50;72.80;;;;;;3916341;30;20059;-67
2023/03/20 07:24:12;;;;;;;10.52;6.13;;;16.50;72.50;;;;;;3916529;30;20071;-67
2023/03/20 07:26:53;;;;;;;8.90;5.40;;;16.40;72.20;;;;;;3915993;30;20063;-69
2023/03/20 07:29:35;;;;;;;9.80;6.78;;;16.40;72.20;;;;;;3917170;30;20058;-70
2023/03/20 07:32:23;;;;;;;9.35;6.75;;;16.40;72.10;;;;;;3914868;30;20055;-69
2023/03/20 07:35:06;;;;;;;10.45;6.68;;;16.30;73.10;;;;;;3928502;30;20066;-69
2023/03/20 07:37:48;;;;;;;;;;;16.30;71.90;;;;;;3937487;30;20244;-70
2023/03/20 07:40:29;;;;;;;12.30;7.10;;;16.30;71.90;;;;;;3923646;30;19998;-69
2023/03/20 07:43:15;;;;;;;11.75;7.00;;;16.20;71.70;;;;;;3914394;30;20421;-69
2023/03/20 07:46:14;;;;;;;9.95;7.32;;;16.20;71.50;;;;;;3920819;30;20102;-69
2023/03/20 07:48:57;;;;;;;11.85;6.97;;;16.10;71.50;;;;;;3916575;30;20139;-69
2023/03/20 07:51:37;;;;;;;11.15;6.65;;;16.10;71.30;;;;;;3914383;30;20071;-69
2023/03/20 07:54:19;;;;;;;12.90;6.57;;;16.10;71.30;;;;;;3925182;30;20141;-69
2023/03/20 07:57:00;;;;;;;9.90;6.10;;;16.00;71.40;;;;;;3924355;30;20058;-69
2023/03/20 07:59:42;;;;;;;9.77;7.35;;;16.00;71.40;;;;;;3933020;30;20055;-70
2023/03/20 08:02:23;;;;;;;;;;;16.00;71.20;;;;;;3914246;30;20655;-69
2023/03/20 08:05:05;;;;;;;12.27;7.50;;;16.00;71.10;;;;;;3924733;30;19948;-69
2023/03/20 08:07:45;;;;;;;9.68;6.97;;;16.00;71.00;;;;;;3924888;30;20202;-69
2023/03/20 08:10:28;;;;;;;12.07;6.45;;;16.00;70.70;;;;;;3913940;30;20205;-69
2023/03/20 08:13:09;;;;;;;10.82;7.57;;;16.10;70.30;;;;;;3930389;30;20058;-69
2023/03/20 08:15:50;;;;;;;10.98;7.30;;;16.20;70.60;;;;;;3929662;30;20116;-69
2023/03/20 08:18:31;;;;;;;10.98;7.18;;;16.20;69.30;;;;;;3927207;30;20143;-69
2023/03/20 08:21:12;;;;;;;11.57;7.38;;;16.30;69.00;;;;;;3938700;30;20213;-69
2023/03/20 08:23:53;;;;;;;13.70;7.80;;;16.30;69.60;;;;;;3938897;30;20070;-69
2023/03/20 08:26:36;;;;;;;10.05;7.78;;;16.30;68.40;;;;;;3922848;30;20297;-68
2023/03/20 08:29:18;;;;;;;17.27;8.48;;;16.30;68.30;;;;;;3937374;30;20062;-69
2023/03/20 08:31:58;;;;;;;;;;;16.30;68.40;;;;;;3924749;30;20063;-68
2023/03/20 08:34:39;;;;;;;10.68;7.13;;;16.30;68.40;;;;;;3916512;30;19933;-70
2023/03/20 08:37:20;;;;;;;11.52;6.55;;;16.20;69.40;;;;;;3924514;30;20496;-70
2023/03/20 08:40:01;;;;;;;13.75;7.30;;;16.20;68.50;;;;;;3912690;30;20427;-70
2023/03/20 08:42:43;;;;;;;11.63;7.73;;;16.20;68.40;;;;;;3929796;30;20397;-72
2023/03/20 08:45:25;;;;;;;15.38;7.45;;;16.20;68.40;;;;;;3921512;30;20297;-73
2023/03/20 08:48:06;;;;;;;15.40;7.53;;;16.10;68.40;;;;;;3927260;30;20067;-72
2023/03/20 08:50:47;;;;;;;10.13;6.82;;;16.10;68.40;;;;;;3913690;30;20075;-74
2023/03/20 08:53:28;;;;;;;10.43;7.13;;;16.10;68.60;;;;;;3909623;30;20063;-73
2023/03/20 08:56:10;;;;;;;13.30;7.70;;;16.00;68.60;;;;;;3913750;30;20618;-73
2023/03/20 08:58:54;;;;;;;8.98;6.45;;;16.00;68.70;;;;;;3922089;30;20059;-73
2023/03/20 09:01:35;;;;;;;14.57;7.75;;;16.00;69.70;;;;;;3913222;30;20064;-73
2023/03/20 09:04:28;;;;;;;13.20;8.32;;;16.00;68.90;;;;;;3917488;30;20102;-73
2023/03/20 09:07:09;;;;;;;10.85;7.65;;;16.00;68.70;;;;;;3912508;30;20094;-73
2023/03/20 09:09:50;;;;;;;10.65;6.70;;;15.90;68.60;;;;;;3913703;30;20179;-70
2023/03/20 09:12:31;;;;;;;12.55;7.45;;;16.00;68.60;;;;;;3919226;30;20513;-67
2023/03/20 09:15:14;;;;;;;12.27;7.35;;;15.90;68.60;;;;;;3901732;30;20537;-68
2023/03/20 09:17:55;;;;;;;12.70;8.32;;;15.90;68.60;;;;;;3921909;30;20152;-69
2023/03/20 09:20:36;;;;;;;13.13;8.18;;;15.90;68.60;;;;;;3920076;30;20067;-68
2023/03/20 09:23:18;;;;;;;11.85;7.30;;;15.90;68.60;;;;;;3912048;30;20055;-68
2023/03/20 09:25:59;;;;;;;13.20;7.05;;;15.90;68.70;;;;;;3912741;30;20065;-67
2023/03/20 09:28:40;;;;;;;13.95;7.85;;;15.90;68.70;;;;;;3917775;30;20067;-68
2023/03/20 09:31:22;;;;;;;11.75;8.02;;;15.90;68.60;;;;;;3925762;30;20507;-67
2023/03/20 09:34:05;;;;;;;11.73;7.80;;;15.90;68.60;;;;;;3919960;30;20198;-68
2023/03/20 09:36:45;;;;;;;;;;;15.90;68.60;;;;;;3912933;30;20567;-68
2023/03/20 09:39:26;;;;;;;11.70;7.30;;;15.90;68.80;;;;;;3921986;30;19936;-68
2023/03/20 09:42:21;;;;;;;12.77;7.25;;;15.90;69.00;;;;;;3900680;30;20059;-68
2023/03/20 09:45:10;;;;;;;9.65;6.43;;;15.80;68.90;;;;;;3925173;30;20425;-68
2023/03/20 09:48:02;;;;;;;14.20;6.82;;;15.80;69.00;;;;;;3926268;30;20141;-68
2023/03/20 09:50:49;;;;;;;15.30;7.97;;;15.80;69.00;;;;;;3926050;30;20066;-68
2023/03/20 09:53:33;;;;;;;13.63;6.78;;;15.80;69.00;;;;;;3917460;30;20143;-68
2023/03/20 09:56:17;;;;;;;12.45;7.07;;;15.80;69.10;;;;;;3917431;30;20069;-68
2023/03/20 09:59:00;;;;;;;17.75;7.22;;;15.80;69.10;;;;;;3913099;30;20059;-68
2023/03/20 10:01:47;;;;;;;6.30;4.15;;;15.80;69.10;;;;;;3925311;30;20059;-68
2023/03/20 10:04:30;;;;;;;11.32;6.82;;;15.80;69.30;;;;;;3925843;30;20497;-64
2023/03/20 10:07:15;;;;;;;13.45;6.82;;;15.80;69.20;;;;;;3925802;30;20067;-68
2023/03/20 10:09:56;;;;;;;13.25;7.18;;;15.80;68.90;;;;;;3907955;30;20060;-67
2023/03/20 10:12:50;;;;;;;14.87;7.23;;;15.80;69.10;;;;;;3911913;30;20064;-68
2023/03/20 10:15:43;;;;;;;12.98;5.25;;;15.80;69.00;;;;;;3910908;30;20103;-67
2023/03/20 10:18:27;;;;;;;13.93;6.47;;;15.80;69.00;;;;;;3914218;30;20543;-67
2023/03/20 10:21:17;;;;;;;13.88;5.43;;;15.80;68.90;;;;;;3911825;30;21066;-67
2023/03/20 10:24:04;;;;;;;8.98;5.38;;;15.70;68.80;;;;;;3909116;30;20132;-67
2023/03/20 10:26:46;;;;;;;10.05;5.75;;;15.80;69.00;;;;;;3914502;30;20051;-67
2023/03/20 10:29:35;;;;;;;9.68;6.13;;;15.80;69.00;;;;;;3912189;30;20634;-67
2023/03/20 10:32:23;;;;;;;13.57;6.03;;;15.70;68.90;;;;;;3916865;30;20055;-67
2023/03/20 10:35:16;;;;;;;11.80;6.55;;;15.80;69.00;;;;;;3916934;30;20063;-66
2023/03/20 10:38:19;;;;;;;12.88;6.63;;;15.70;68.80;;;;;;3919710;30;20063;-66
2023/03/20 10:41:01;;;;;;;9.18;6.00;;;15.80;68.70;;;;;;3910666;30;20193;-66
2023/03/20 10:43:43;;;;;;;13.40;6.88;;;15.80;68.80;;;;;;3900193;30;20067;-68
2023/03/20 10:46:28;;;;;;;12.68;6.75;;;15.80;68.70;;;;;;3904031;30;20067;-68
2023/03/20 10:49:17;;;;;;;10.65;6.18;;;15.80;68.60;;;;;;3917786;30;20202;-68
2023/03/20 10:52:03;;;;;;;13.50;6.72;;;15.80;68.50;;;;;;3930746;30;20599;-68
2023/03/20 10:54:48;;;;;;;9.98;5.85;;;15.80;68.70;;;;;;3925949;30;20107;-67
2023/03/20 10:57:33;;;;;;;10.00;6.35;;;15.80;68.90;;;;;;3925532;30;20058;-67
2023/03/20 11:00:18;;;;;;;7.65;6.18;;;15.70;68.90;;;;;;3938616;30;20066;-67
2023/03/20 11:03:00;;;;;;;13.35;6.93;;;15.70;68.80;;;;;;3940113;30;20066;-67
2023/03/20 11:05:41;;;;;;;13.13;6.63;;;15.80;68.80;;;;;;3930080;30;20926;-68
2023/03/20 11:08:24;;;;;;;10.27;6.57;;;15.80;69.50;;;;;;3926964;30;20059;-67
2023/03/20 11:11:06;;;;;;;10.70;6.68;;;15.80;69.50;;;;;;3926002;30;20144;-67
2023/03/20 11:13:48;;;;;;;12.27;6.90;;;15.70;68.60;;;;;;3925340;30;20054;-67
2023/03/20 11:16:32;;;;;;;9.48;6.43;;;15.80;68.80;;;;;;3928660;30;20193;-68
2023/03/20 11:19:23;;;;;;;18.73;5.88;;;15.70;68.70;;;;;;4173522;27;20384;-67
2023/03/20 11:22:09;;;;;;;10.30;6.25;;;15.80;68.70;;;;;;4158703;28;20114;-68
2023/03/20 11:24:54;;;;;;;10.82;4.80;;;15.80;68.60;;;;;;4156569;28;20065;-67
2023/03/20 11:27:35;;;;;;;11.85;6.13;;;15.80;68.60;;;;;;4162644;28;20512;-66
2023/03/20 11:30:17;;;;;;;12.43;5.85;;;15.70;68.70;;;;;;4164656;28;20514;-71
2023/03/20 11:33:02;;;;;;;11.73;5.25;;;15.70;68.70;;;;;;4159654;28;20183;-71
2023/03/20 11:35:47;;;;;;;9.73;5.68;;;15.70;69.00;;;;;;4154360;28;20068;-68
2023/03/20 11:38:31;;;;;;;9.80;4.85;;;15.70;69.10;;;;;;4157791;28;20060;-68
2023/03/20 11:41:19;;;;;;;9.13;4.80;;;15.70;69.20;;;;;;4156904;28;20060;-66
2023/03/20 11:44:00;;;;;;;9.90;4.15;;;15.70;69.20;;;;;;4154005;28;20060;-67
2023/03/20 11:46:41;;;;;;;8.02;4.05;;;15.70;69.10;;;;;;4154855;28;20126;-67
2023/03/20 11:49:26;;;;;;;12.40;4.55;;;15.70;69.10;;;;;;4165359;28;20158;-66
2023/03/20 11:52:15;;;;;;;9.25;4.25;;;15.70;69.10;;;;;;4154253;28;20065;-67
2023/03/20 11:54:58;;;;;;;10.45;4.07;;;15.70;69.10;;;;;;4159278;28;20052;-67
2023/03/20 11:57:41;;;;;;;8.27;4.18;;;15.70;69.10;;;;;;4155187;28;20811;-68
2023/03/20 12:00:25;;;;;;;8.25;3.97;;;15.60;69.10;;;;;;4154425;28;20067;-68
2023/03/20 12:03:34;;;;;;;6.32;4.10;;;15.70;69.10;;;;;;4154071;28;20056;-67
2023/03/20 12:06:17;;;;;;;6.82;3.88;;;15.60;68.90;;;;;;4168010;28;20052;-68
2023/03/20 12:09:03;;;;;;;7.03;3.38;;;15.70;69.20;;;;;;4153092;28;20060;-67
2023/03/20 12:11:48;;;;;;;10.57;3.80;;;15.60;69.20;;;;;;4155221;28;20056;-68
2023/03/20 12:14:38;;;;;;;6.30;3.28;;;15.60;69.20;;;;;;4157786;28;20131;-67
2023/03/20 12:17:40;;;;;;;5.10;3.10;;;15.60;69.10;;;;;;4154790;28;20187;-67
2023/03/20 12:20:28;;;;;;;6.43;3.08;;;15.60;69.00;;;;;;4170076;28;20053;-67
2023/03/20 12:23:13;;;;;;;11.15;4.03;;;15.60;69.10;;;;;;4161063;28;20187;-67
2023/03/20 12:26:01;;;;;;;6.30;3.25;;;15.60;69.00;;;;;;4154723;28;20064;-66
2023/03/20 12:28:47;;;;;;;7.07;3.22;;;15.60;69.00;;;;;;4155295;28;20053;-67
2023/03/20 12:31:35;;;;;;;8.65;3.65;;;15.60;68.90;;;;;;4151737;28;20060;-66
2023/03/20 12:34:21;;;;;;;9.50;3.30;;;15.60;68.70;;;;;;4157913;28;20087;-67
2023/03/20 12:37:02;;;;;;;7.60;3.28;;;15.60;68.70;;;;;;4149535;28;20135;-67
2023/03/20 12:39:48;;;;;;;7.00;3.27;;;15.60;68.90;;;;;;4149675;28;20116;-66
2023/03/20 12:42:40;;;;;;;7.68;2.85;;;15.60;68.60;;;;;;4149752;28;20048;-66
2023/03/20 12:45:23;;;;;;;5.50;2.72;;;15.60;68.60;;;;;;4142312;28;20114;-68
2023/03/20 12:48:24;;;;;;;5.63;2.65;;;15.60;68.60;;;;;;4142381;28;20064;-66
2023/03/20 12:51:12;;;;;;;5.18;2.88;;;15.60;68.60;;;;;;4147644;28;20095;-67
2023/03/20 12:54:07;;;;;;;4.57;2.80;;;15.60;68.80;;;;;;4125733;28;20061;-67
2023/03/20 12:57:04;;;;;;;6.55;2.75;;;15.60;68.90;;;;;;4151418;28;20056;-66
2023/03/20 12:59:56;;;;;;;6.82;3.17;;;15.60;68.90;;;;;;4132387;28;20056;-66
2023/03/20 13:02:50;;;;;;;7.43;3.22;;;15.60;69.00;;;;;;4126842;28;20068;-67
2023/03/20 13:05:40;;;;;;;6.50;2.83;;;15.60;69.10;;;;;;4125370;28;20064;-66
2023/03/20 13:08:37;;;;;;;6.50;3.00;;;15.60;69.20;;;;;;4144378;28;20061;-67
2023/03/20 13:11:25;;;;;;;7.28;2.80;;;15.50;69.30;;;;;;4146107;28;20508;-65
2023/03/20 13:14:13;;;;;;;5.10;2.63;;;15.60;69.60;;;;;;4124708;28;20058;-67
2023/03/20 13:17:01;;;;;;;6.13;2.95;;;15.50;69.70;;;;;;4124488;28;20119;-66
2023/03/20 13:19:48;;;;;;;3.53;2.42;;;15.50;70.00;;;;;;4124570;28;20077;-66
2023/03/20 13:22:37;;;;;;;5.10;2.72;;;15.50;70.80;;;;;;4127905;28;20126;-66
2023/03/20 13:25:31;;;;;;;5.53;2.70;;;15.50;70.80;;;;;;4125176;28;20053;-66
2023/03/20 13:28:17;;;;;;;8.02;2.38;;;15.50;70.80;;;;;;4125725;28;20050;-67
2023/03/20 13:31:03;;;;;;;5.75;2.20;;;15.50;70.80;;;;;;4142039;28;20507;-66
2023/03/20 13:33:51;;;;;;;6.60;2.85;;;15.50;70.80;;;;;;4138948;28;20057;-66
2023/03/20 13:36:47;;;;;;;3.40;2.00;;;15.50;70.90;;;;;;4142170;28;20186;-66
2023/03/20 13:39:33;;;;;;;3.95;2.17;;;15.40;70.70;;;;;;4126532;28;20053;-66
2023/03/20 13:42:19;;;;;;;4.35;2.30;;;15.40;70.70;;;;;;4153465;28;20098;-66
2023/03/20 13:45:08;;;;;;;3.22;2.45;;;15.40;70.70;;;;;;4151164;28;20048;-66
2023/03/20 13:47:51;;;;;;;5.53;2.58;;;15.40;70.70;;;;;;4142936;28;20409;-66
2023/03/20 13:50:45;;;;;;;3.88;2.20;;;15.40;70.70;;;;;;4141713;28;20428;-66
2023/03/20 13:53:31;;;;;;;4.63;2.70;;;15.40;70.70;;;;;;4141229;28;20069;-67
2023/03/20 13:56:22;;;;;;;4.30;2.25;;;15.40;70.80;;;;;;4141420;28;20056;-67
2023/03/20 13:59:19;;;;;;;5.68;2.65;;;15.40;70.80;;;;;;4124949;28;20104;-67
2023/03/20 14:02:11;;;;;;;5.28;2.83;;;15.40;70.90;;;;;;4124620;28;20053;-67
2023/03/20 14:04:59;;;;;;;4.03;2.53;;;15.40;71.00;;;;;;4150390;28;20052;-67
2023/03/20 14:07:44;;;;;;;2.42;2.17;;;15.40;71.10;;;;;;4141692;28;20072;-67
2023/03/20 14:10:38;;;;;;;4.82;3.38;;;15.40;71.20;;;;;;4141311;28;20057;-67
2023/03/20 14:13:20;;;;;;;3.13;2.60;;;15.40;71.30;;;;;;4141147;28;20061;-67
2023/03/20 14:16:01;;;;;;;;;;;15.30;71.30;;;;;;4150150;28;20124;-68
2023/03/20 14:18:45;;;;;;;6.05;3.35;;;15.30;71.30;;;;;;4147134;28;19928;-67
2023/03/20 14:21:26;;;;;;;3.90;3.13;;;15.30;71.50;;;;;;4124002;28;20061;-67
2023/03/20 14:24:16;;;;;;;3.72;2.90;;;15.30;71.60;;;;;;4124716;28;20049;-67
2023/03/20 14:26:58;;;;;;;4.25;2.88;;;15.30;71.60;;;;;;4124516;28;20058;-67